createdAt,value
2023-11-23T00:00:35.733Z,98971.59
2023-11-23T00:03:05.166Z,98972.94
2023-11-23T00:05:33.254Z,98972.50
2023-11-23T00:08:01.558Z,98973.03
2023-11-23T00:10:29.804Z,98957.53
2023-11-23T00:12:57.969Z,98949.47
2023-11-23T00:15:25.881Z,98955.47
2023-11-23T00:17:54.450Z,98948.78
2023-11-23T00:20:24.039Z,98951.03
2023-11-23T00:22:52.470Z,98943.44
2023-11-23T00:25:20.545Z,98935.00
2023-11-23T00:27:48.627Z,98929.50
2023-11-23T00:30:16.753Z,98925.94
2023-11-23T00:32:44.868Z,98923.78
2023-11-23T00:35:12.959Z,98924.53
2023-11-23T00:37:42.332Z,98906.16
2023-11-23T00:40:11.254Z,98898.25
2023-11-23T00:42:39.440Z,98913.00
2023-11-23T00:45:08.976Z,98905.47
2023-11-23T00:47:37.205Z,98892.91
2023-11-23T00:50:06.522Z,98893.59
2023-11-23T00:52:34.548Z,98899.63
2023-11-23T00:55:05.878Z,98890.50
2023-11-23T00:57:35.749Z,98890.66
2023-11-23T01:00:06.471Z,98889.25
2023-11-23T01:02:34.755Z,98901.03
2023-11-23T01:05:02.801Z,98884.94
2023-11-23T01:07:31.092Z,98891.19
2023-11-23T01:09:58.974Z,98884.13
2023-11-23T01:12:28.280Z,98888.38
2023-11-23T01:14:56.592Z,98884.56
2023-11-23T01:17:24.500Z,98885.47
2023-11-23T01:19:52.471Z,98868.69
2023-11-23T01:22:20.660Z,98870.72
2023-11-23T01:24:48.580Z,98859.88
2023-11-23T01:27:16.529Z,98844.66
2023-11-23T01:29:46.065Z,98845.56
2023-11-23T01:32:14.283Z,98854.56
2023-11-23T01:34:42.362Z,98842.31
2023-11-23T01:37:10.557Z,98843.91
2023-11-23T01:39:38.545Z,98837.66
2023-11-23T01:42:06.837Z,98842.69
2023-11-23T01:44:34.836Z,98844.72
2023-11-23T01:47:05.820Z,98833.69
2023-11-23T01:49:36.611Z,98815.97
2023-11-23T01:52:05.456Z,98820.59
2023-11-23T01:54:33.780Z,98811.72
2023-11-23T01:57:02.190Z,98807.50
2023-11-23T01:59:35.024Z,98800.97
2023-11-23T02:02:06.135Z,98791.34
2023-11-23T02:04:34.635Z,98791.16
2023-11-23T02:07:02.683Z,98781.69
2023-11-23T02:09:32.207Z,98775.44
2023-11-23T02:12:02.603Z,98777.81
2023-11-23T02:14:32.156Z,98776.22
2023-11-23T02:17:00.468Z,98787.97
2023-11-23T02:19:29.844Z,98784.75
2023-11-23T02:21:57.748Z,98788.97
2023-11-23T02:24:27.174Z,98796.22
2023-11-23T02:26:58.553Z,98777.16
2023-11-23T02:29:26.488Z,98758.75
2023-11-23T02:31:55.899Z,98756.44
2023-11-23T02:34:23.815Z,98749.91
2023-11-23T02:36:51.727Z,98758.69
2023-11-23T02:39:19.830Z,98745.97
2023-11-23T02:41:50.191Z,98737.28
2023-11-23T02:44:17.900Z,98741.75
2023-11-23T02:46:46.092Z,98729.66
2023-11-23T02:49:14.052Z,98722.66
2023-11-23T02:51:41.943Z,98734.88
2023-11-23T02:54:10.545Z,98720.53
2023-11-23T02:56:38.508Z,98711.34
2023-11-23T02:59:09.073Z,98714.53
2023-11-23T03:01:37.321Z,98715.06
2023-11-23T03:04:06.469Z,98709.28
2023-11-23T03:06:34.452Z,98694.81
2023-11-23T03:09:02.611Z,98683.66
2023-11-23T03:11:30.717Z,98691.44
2023-11-23T03:13:59.527Z,98696.56
2023-11-23T03:16:29.195Z,98691.25
2023-11-23T03:18:57.278Z,98685.06
2023-11-23T03:21:25.489Z,98685.31
2023-11-23T03:23:54.425Z,98673.03
2023-11-23T03:26:22.392Z,98676.31
2023-11-23T03:28:50.394Z,98666.50
2023-11-23T03:31:18.748Z,98673.09
2023-11-23T03:33:48.067Z,98663.94
2023-11-23T03:36:16.108Z,98655.59
2023-11-23T03:38:44.392Z,98653.44
2023-11-23T03:41:12.558Z,98643.59
2023-11-23T03:43:40.540Z,98618.19
2023-11-23T03:46:09.109Z,98629.00
2023-11-23T03:48:37.162Z,98620.91
2023-11-23T03:51:07.505Z,98623.97
2023-11-23T03:53:35.338Z,98615.44
2023-11-23T03:56:03.536Z,98605.53
2023-11-23T03:58:31.558Z,98591.75
2023-11-23T04:01:01.188Z,98577.38
2023-11-23T04:03:31.716Z,98577.06
2023-11-23T04:06:00.403Z,98573.50
2023-11-23T04:08:29.754Z,98576.47
2023-11-23T04:10:57.627Z,98567.53
2023-11-23T04:13:25.758Z,98556.09
2023-11-23T04:15:53.964Z,98566.34
2023-11-23T04:18:22.142Z,98572.75
2023-11-23T04:20:50.488Z,98568.97
2023-11-23T04:23:18.374Z,98568.81
2023-11-23T04:25:47.633Z,98544.06
2023-11-23T04:28:16.022Z,98555.00
2023-11-23T04:30:43.968Z,98558.66
2023-11-23T04:33:12.318Z,98560.47
2023-11-23T04:35:40.640Z,98560.31
2023-11-23T04:38:08.572Z,98554.34
2023-11-23T04:40:37.049Z,98542.66
2023-11-23T04:43:06.530Z,98545.78
2023-11-23T04:45:34.466Z,98536.25
2023-11-23T04:48:05.278Z,98518.69
2023-11-23T04:50:34.408Z,98526.00
2023-11-23T04:53:02.303Z,98518.97
2023-11-23T04:55:30.609Z,98514.53
2023-11-23T04:57:58.726Z,98508.41
2023-11-23T05:00:28.248Z,98515.44
2023-11-23T05:02:56.813Z,98505.03
2023-11-23T05:05:25.100Z,98508.97
2023-11-23T05:07:53.000Z,98498.13
2023-11-23T05:10:21.799Z,98508.94
2023-11-23T05:12:54.470Z,98501.25
2023-11-23T05:15:22.730Z,98493.56
2023-11-23T05:17:52.182Z,98493.06
2023-11-23T05:20:21.566Z,98492.47
2023-11-23T05:22:49.487Z,98485.38
2023-11-23T05:25:17.525Z,98471.88
2023-11-23T05:27:45.489Z,98472.69
2023-11-23T05:30:14.124Z,98463.72
2023-11-23T05:32:42.195Z,98472.34
2023-11-23T05:35:11.905Z,98469.72
2023-11-23T05:37:39.900Z,98464.75
2023-11-23T05:40:10.275Z,98461.97
2023-11-23T05:42:38.475Z,98439.41
2023-11-23T05:45:07.054Z,98456.19
2023-11-23T05:47:35.049Z,98444.75
2023-11-23T05:50:04.285Z,98442.19
2023-11-23T05:52:33.569Z,98446.16
2023-11-23T05:55:01.558Z,98439.41
2023-11-23T05:57:29.693Z,98444.00
2023-11-23T05:59:57.580Z,98434.34
2023-11-23T06:02:25.604Z,98441.66
2023-11-23T06:04:53.688Z,98428.97
2023-11-23T06:07:21.694Z,98413.97
2023-11-23T06:09:52.230Z,98421.25
2023-11-23T06:12:20.242Z,98410.59
2023-11-23T06:14:48.203Z,98392.63
2023-11-23T06:17:16.690Z,98391.03
2023-11-23T06:19:44.934Z,98387.75
2023-11-23T06:22:13.267Z,98363.75
2023-11-23T06:24:41.341Z,98357.91
2023-11-23T06:27:11.936Z,98351.31
2023-11-23T06:29:39.926Z,98340.25
2023-11-23T06:32:08.528Z,98328.63
2023-11-23T06:34:39.731Z,98312.72
2023-11-23T06:37:09.063Z,98325.59
2023-11-23T06:39:38.294Z,98318.69
2023-11-23T06:42:06.562Z,98318.81
2023-11-23T06:44:36.731Z,98315.25
2023-11-23T06:47:05.290Z,98299.00
2023-11-23T06:49:33.964Z,98295.91
2023-11-23T06:52:01.875Z,98300.50
2023-11-23T06:54:30.158Z,98287.97
2023-11-23T06:56:58.923Z,98298.75
2023-11-23T06:59:26.906Z,98287.00
2023-11-23T07:01:57.594Z,98288.53
2023-11-23T07:04:25.864Z,98285.41
2023-11-23T07:06:53.792Z,98272.63
2023-11-23T07:09:22.682Z,98260.78
2023-11-23T07:11:55.270Z,98269.09
2023-11-23T07:14:23.883Z,98260.84
2023-11-23T07:16:53.165Z,98248.09
2023-11-23T07:19:23.652Z,98261.50
2023-11-23T07:21:51.519Z,98256.25
2023-11-23T07:24:21.028Z,98258.78
2023-11-23T07:26:50.222Z,98249.31
2023-11-23T07:29:18.325Z,98241.34
2023-11-23T07:31:47.708Z,98237.84
2023-11-23T07:34:15.687Z,98239.09
2023-11-23T07:36:45.090Z,98232.19
2023-11-23T07:39:13.195Z,98220.72
2023-11-23T07:41:41.576Z,98237.22
2023-11-23T07:44:09.637Z,98232.59
2023-11-23T07:46:37.811Z,98222.97
2023-11-23T07:49:07.849Z,98213.38
2023-11-23T07:51:38.869Z,98215.50
2023-11-23T07:54:09.204Z,98216.78
2023-11-23T07:56:37.020Z,98209.19
2023-11-23T07:59:05.115Z,98204.63
2023-11-23T08:01:33.189Z,98193.91
2023-11-23T08:04:01.641Z,98184.19
2023-11-23T08:06:29.721Z,98187.06
2023-11-23T08:08:57.775Z,98176.59
2023-11-23T08:11:27.251Z,98174.78
2023-11-23T08:13:56.572Z,98167.63
2023-11-23T08:16:24.501Z,98164.88
2023-11-23T08:18:52.659Z,98165.97
2023-11-23T08:21:20.711Z,98153.38
2023-11-23T08:23:48.602Z,98159.06
2023-11-23T08:26:17.100Z,98160.69
2023-11-23T08:28:46.556Z,98161.78
2023-11-23T08:31:14.541Z,98160.28
2023-11-23T08:33:42.588Z,98145.16
2023-11-23T08:36:11.271Z,98143.97
2023-11-23T08:38:39.397Z,98122.16
2023-11-23T08:41:07.831Z,98124.47
2023-11-23T08:43:38.515Z,98124.97
2023-11-23T08:46:08.840Z,98122.84
2023-11-23T08:48:36.670Z,98116.25
2023-11-23T08:51:05.168Z,98116.41
2023-11-23T08:53:33.775Z,98106.19
2023-11-23T08:56:04.218Z,98094.69
2023-11-23T08:58:32.172Z,98103.91
2023-11-23T09:01:00.790Z,98104.88
2023-11-23T09:03:30.861Z,98092.06
2023-11-23T09:05:59.665Z,98094.75
2023-11-23T09:08:27.966Z,98081.44
2023-11-23T09:10:56.994Z,98076.13
2023-11-23T09:13:27.050Z,98079.41
2023-11-23T09:15:55.805Z,98070.41
2023-11-23T09:18:24.422Z,98067.03
2023-11-23T09:20:54.014Z,98064.94
2023-11-23T09:23:21.973Z,98058.81
2023-11-23T09:25:50.104Z,98058.78
2023-11-23T09:28:18.257Z,98050.56
2023-11-23T09:30:46.184Z,98046.09
2023-11-23T09:33:16.423Z,98032.75
2023-11-23T09:35:44.488Z,98049.16
2023-11-23T09:38:13.806Z,98035.97
2023-11-23T09:40:42.710Z,98030.72
2023-11-23T09:43:10.921Z,98044.88
2023-11-23T09:45:39.811Z,98026.16
2023-11-23T09:48:12.618Z,98014.25
2023-11-23T09:50:42.668Z,98019.97
2023-11-23T09:53:14.884Z,98011.78
2023-11-23T09:55:44.810Z,97999.28
2023-11-23T09:58:14.845Z,97991.91
2023-11-23T10:00:43.088Z,97990.44
2023-11-23T10:03:15.205Z,97987.81
2023-11-23T10:05:44.869Z,97962.25
2023-11-23T10:08:15.066Z,97967.84
2023-11-23T10:10:42.057Z,97963.06
2023-11-23T10:13:10.797Z,97968.47
2023-11-23T10:15:39.063Z,97956.47
2023-11-23T10:18:08.502Z,97950.84
2023-11-23T10:20:39.977Z,97944.66
2023-11-23T10:23:10.239Z,97949.47
2023-11-23T10:25:42.903Z,97922.78
2023-11-23T10:28:11.728Z,97930.28
2023-11-23T10:30:40.663Z,97911.72
2023-11-23T10:33:13.106Z,97895.88
2023-11-23T10:35:43.920Z,97895.94
2023-11-23T10:38:15.130Z,97898.78
2023-11-23T10:40:46.883Z,97889.47
2023-11-23T10:43:18.698Z,97888.44
2023-11-23T10:45:49.719Z,97889.41
2023-11-23T10:48:18.822Z,97902.03
2023-11-23T10:50:47.388Z,97880.09
2023-11-23T10:53:17.938Z,97887.47
2023-11-23T10:55:51.001Z,97871.69
2023-11-23T10:58:20.860Z,97876.50
2023-11-23T11:00:49.597Z,97894.22
2023-11-23T11:03:25.261Z,97882.09
2023-11-23T11:05:54.680Z,97886.72
2023-11-23T11:08:28.197Z,97878.38
2023-11-23T11:10:58.886Z,97877.88
2023-11-23T11:13:27.725Z,97874.50
2023-11-23T11:15:58.846Z,97883.47
2023-11-23T11:18:28.249Z,97862.38
2023-11-23T11:21:13.259Z,97862.69
2023-11-23T11:23:43.166Z,97863.38
2023-11-23T11:26:14.338Z,97859.75
2023-11-23T11:28:43.481Z,97848.19
2023-11-23T11:31:14.937Z,97854.28
2023-11-23T11:33:43.307Z,97867.75
2023-11-23T11:36:14.100Z,97845.03
2023-11-23T11:38:43.189Z,97850.47
2023-11-23T11:41:12.841Z,97829.50
2023-11-23T11:43:43.121Z,97834.38
2023-11-23T11:46:11.270Z,97828.25
2023-11-23T11:48:39.384Z,97824.38
2023-11-23T11:51:10.552Z,97824.84
2023-11-23T11:53:38.761Z,97831.84
2023-11-23T11:56:07.912Z,97814.91
2023-11-23T11:58:37.336Z,97816.03
2023-11-23T12:01:06.096Z,97820.59
2023-11-23T12:03:34.180Z,97825.44
2023-11-23T12:06:04.988Z,97819.53
2023-11-23T12:08:36.504Z,97821.28
2023-11-23T12:11:06.930Z,97813.94
2023-11-23T12:13:36.192Z,97814.25
2023-11-23T12:16:08.604Z,97817.75
2023-11-23T12:18:37.945Z,97827.53
2023-11-23T12:21:13.677Z,97820.72
2023-11-23T12:23:43.161Z,97822.84
2023-11-23T12:26:11.941Z,97817.59
2023-11-23T12:28:40.291Z,97823.00
2023-11-23T12:31:09.934Z,97812.97
2023-11-23T12:33:39.005Z,97821.72
2023-11-23T12:36:08.058Z,97814.88
2023-11-23T12:38:35.989Z,97815.59
2023-11-23T12:41:04.447Z,97818.16
2023-11-23T12:43:32.420Z,97815.59
2023-11-23T12:46:00.518Z,97805.78
2023-11-23T12:48:30.123Z,97809.16
2023-11-23T12:51:00.028Z,97806.91
2023-11-23T12:53:30.520Z,97802.34
2023-11-23T12:55:59.089Z,97810.41
2023-11-23T12:58:27.079Z,97802.47
2023-11-23T13:00:55.087Z,97811.34
2023-11-23T13:03:24.837Z,97800.09
2023-11-23T13:05:55.704Z,97807.22
2023-11-23T13:08:24.997Z,97808.34
2023-11-23T13:10:52.892Z,97809.28
2023-11-23T13:13:20.994Z,97793.47
2023-11-23T13:15:49.112Z,97809.72
2023-11-23T13:18:17.428Z,97792.91
2023-11-23T13:20:46.472Z,97782.31
2023-11-23T13:23:16.300Z,97788.22
2023-11-23T13:25:46.243Z,97770.53
2023-11-23T13:28:14.991Z,97779.25
2023-11-23T13:30:44.206Z,97772.84
2023-11-23T13:33:17.026Z,97779.59
2023-11-23T13:35:45.408Z,97776.28
2023-11-23T13:38:13.352Z,97766.16
2023-11-23T13:40:43.255Z,97764.00
2023-11-23T13:43:12.175Z,97754.19
2023-11-23T13:45:40.516Z,97769.13
2023-11-23T13:48:09.608Z,97767.00
2023-11-23T13:50:43.235Z,97763.72
2023-11-23T13:53:12.432Z,97761.47
2023-11-23T13:55:41.368Z,97756.03
2023-11-23T13:58:10.904Z,97734.56
2023-11-23T14:00:39.123Z,97745.50
2023-11-23T14:03:07.616Z,97749.91
2023-11-23T14:05:35.536Z,97750.63
2023-11-23T14:08:05.676Z,97753.38
2023-11-23T14:10:33.941Z,97748.28
2023-11-23T14:13:01.909Z,97751.75
2023-11-23T14:15:31.566Z,97750.75
2023-11-23T14:18:00.948Z,97738.66
2023-11-23T14:20:28.998Z,97754.72
2023-11-23T14:22:56.983Z,97747.22
2023-11-23T14:25:25.007Z,97752.75
2023-11-23T14:27:56.693Z,97752.25
2023-11-23T14:30:24.866Z,97747.66
2023-11-23T14:32:54.335Z,97753.28
2023-11-23T14:35:22.904Z,97740.47
2023-11-23T14:37:51.859Z,97733.53
2023-11-23T14:40:20.457Z,97734.75
2023-11-23T14:42:56.353Z,97708.34
2023-11-23T14:45:28.433Z,97719.84
2023-11-23T14:47:59.846Z,97723.72
2023-11-23T14:50:30.458Z,97723.63
2023-11-23T14:52:59.783Z,97730.88
2023-11-23T14:55:28.149Z,97724.56
2023-11-23T14:57:57.969Z,97735.81
2023-11-23T15:00:26.215Z,97750.16
2023-11-23T15:02:54.919Z,97735.22
2023-11-23T15:05:24.645Z,97739.41
2023-11-23T15:07:53.814Z,97736.25
2023-11-23T15:10:22.119Z,97738.88
2023-11-23T15:12:53.232Z,97742.47
2023-11-23T15:15:22.372Z,97733.25
2023-11-23T15:17:54.226Z,97751.69
2023-11-23T15:20:22.201Z,97714.03
2023-11-23T15:22:52.559Z,97730.59
2023-11-23T15:25:20.447Z,97728.75
2023-11-23T15:27:49.457Z,97733.34
2023-11-23T15:30:17.714Z,97738.69
2023-11-23T15:32:46.981Z,97716.56
2023-11-23T15:35:15.648Z,97722.31
2023-11-23T15:37:44.163Z,97733.34
2023-11-23T15:40:18.088Z,97723.13
2023-11-23T15:42:47.688Z,97722.41
2023-11-23T15:45:15.929Z,97729.78
2023-11-23T15:47:44.314Z,97733.13
2023-11-23T15:50:12.950Z,97733.03
2023-11-23T15:52:42.036Z,97719.75
2023-11-23T15:55:12.848Z,97739.56
2023-11-23T15:57:43.503Z,97738.75
2023-11-23T16:00:13.704Z,97741.22
2023-11-23T16:02:44.474Z,97742.63
2023-11-23T16:05:14.092Z,97739.38
2023-11-23T16:07:42.064Z,97738.22
2023-11-23T16:10:10.805Z,97737.22
2023-11-23T16:12:38.971Z,97751.34
2023-11-23T16:15:11.860Z,97753.19
2023-11-23T16:17:40.520Z,97745.53
2023-11-23T16:20:12.012Z,97748.91
2023-11-23T16:22:39.916Z,97748.28
2023-11-23T16:25:08.850Z,97740.09
2023-11-23T16:27:36.862Z,97735.78
2023-11-23T16:30:05.964Z,97731.19
2023-11-23T16:32:35.371Z,97739.09
2023-11-23T16:35:04.573Z,97735.28
2023-11-23T16:37:32.501Z,97733.13
2023-11-23T16:40:00.380Z,97736.19
2023-11-23T16:42:28.421Z,97741.53
2023-11-23T16:44:56.376Z,97742.31
2023-11-23T16:47:24.819Z,97741.41
2023-11-23T16:49:56.036Z,97742.84
2023-11-23T16:52:24.049Z,97746.75
2023-11-23T16:54:52.206Z,97735.34
2023-11-23T16:57:20.392Z,97728.06
2023-11-23T16:59:48.775Z,97725.69
2023-11-23T17:02:16.938Z,97734.88
2023-11-23T17:04:50.356Z,97736.94
2023-11-23T17:07:21.209Z,97741.53
2023-11-23T17:09:49.211Z,97741.56
2023-11-23T17:12:19.726Z,97748.03
2023-11-23T17:14:47.905Z,97748.16
2023-11-23T17:17:15.922Z,97749.44
2023-11-23T17:19:43.997Z,97742.28
2023-11-23T17:22:12.089Z,97746.25
2023-11-23T17:24:42.672Z,97754.16
2023-11-23T17:27:11.132Z,97741.69
2023-11-23T17:29:39.477Z,97746.88
2023-11-23T17:32:09.072Z,97749.63
2023-11-23T17:34:37.139Z,97760.06
2023-11-23T17:37:05.729Z,97759.47
2023-11-23T17:39:34.050Z,97754.84
2023-11-23T17:42:03.403Z,97748.81
2023-11-23T17:44:31.365Z,97743.13
2023-11-23T17:46:59.310Z,97750.78
2023-11-23T17:49:27.711Z,97745.69
2023-11-23T17:51:58.199Z,97733.41
2023-11-23T17:54:29.751Z,97758.59
2023-11-23T17:56:58.152Z,97751.47
2023-11-23T17:59:43.341Z,97739.84
2023-11-23T18:02:19.536Z,97740.69
2023-11-23T18:04:52.869Z,97761.91
2023-11-23T18:07:23.679Z,97758.34
2023-11-23T18:09:52.228Z,97760.91
2023-11-23T18:12:20.417Z,97766.91
2023-11-23T18:14:49.835Z,97775.59
2023-11-23T18:17:17.766Z,97769.41
2023-11-23T18:19:46.041Z,97777.41
2023-11-23T18:22:14.017Z,97778.69
2023-11-23T18:24:41.977Z,97770.66
2023-11-23T18:27:12.705Z,97783.97
2023-11-23T18:29:40.807Z,97768.28
2023-11-23T18:32:15.149Z,97779.13
2023-11-23T18:34:43.403Z,97781.59
2023-11-23T18:37:13.270Z,97779.25
2023-11-23T18:39:42.345Z,97771.59
2023-11-23T18:42:12.738Z,97778.50
2023-11-23T18:44:41.890Z,97773.03
2023-11-23T18:47:11.482Z,97780.06
2023-11-23T18:49:39.424Z,97761.94
2023-11-23T18:52:11.962Z,97773.78
2023-11-23T18:54:40.110Z,97772.69
2023-11-23T18:57:08.003Z,97783.50
2023-11-23T18:59:36.063Z,97791.50
2023-11-23T19:02:06.432Z,97786.69
2023-11-23T19:04:35.888Z,97767.91
2023-11-23T19:07:05.045Z,97775.38
2023-11-23T19:09:33.757Z,97779.28
2023-11-23T19:12:01.668Z,97774.75
2023-11-23T19:14:32.373Z,97769.44
2023-11-23T19:17:00.433Z,97789.22
2023-11-23T19:19:28.879Z,97777.56
2023-11-23T19:21:58.786Z,97775.09
2023-11-23T19:24:27.754Z,97774.59
2023-11-23T19:26:56.223Z,97777.59
2023-11-23T19:29:35.195Z,97774.84
2023-11-23T19:32:11.887Z,97789.91
2023-11-23T19:34:40.379Z,97782.75
2023-11-23T19:37:11.008Z,97792.28
2023-11-23T19:39:39.527Z,97796.72
2023-11-23T19:42:08.944Z,97797.28
2023-11-23T19:44:37.451Z,97791.34
2023-11-23T19:47:06.051Z,97791.25
2023-11-23T19:49:34.582Z,97809.59
2023-11-23T19:52:08.150Z,97797.19
2023-11-23T19:54:37.548Z,97800.28
2023-11-23T19:57:07.418Z,97805.47
2023-11-23T19:59:36.029Z,97804.81
2023-11-23T20:02:04.333Z,97811.47
2023-11-23T20:04:34.230Z,97809.59
2023-11-23T20:07:04.541Z,97815.72
2023-11-23T20:09:32.664Z,97812.16
2023-11-23T20:12:02.237Z,97821.38
2023-11-23T20:14:30.249Z,97826.41
2023-11-23T20:16:58.698Z,97824.50
2023-11-23T20:19:26.734Z,97816.47
2023-11-23T20:21:54.835Z,97830.59
2023-11-23T20:24:25.023Z,97818.28
2023-11-23T20:26:53.392Z,97819.91
2023-11-23T20:29:23.896Z,97814.69
2023-11-23T20:31:52.300Z,97813.19
2023-11-23T20:34:20.846Z,97820.13
2023-11-23T20:36:49.056Z,97818.28
2023-11-23T20:39:17.623Z,97838.25
2023-11-23T20:41:46.827Z,97822.47
2023-11-23T20:44:14.928Z,97818.28
2023-11-23T20:46:45.343Z,97826.84
2023-11-23T20:49:13.354Z,97828.56
2023-11-23T20:51:41.409Z,97831.94
2023-11-23T20:54:09.425Z,97829.72
2023-11-23T20:56:37.822Z,97821.94
2023-11-23T20:59:06.622Z,97838.41
2023-11-23T21:01:35.234Z,97850.72
2023-11-23T21:04:05.530Z,97844.66
2023-11-23T21:06:33.897Z,97854.44
2023-11-23T21:09:03.756Z,97861.34
2023-11-23T21:11:31.809Z,97866.59
2023-11-23T21:13:59.810Z,97866.59
2023-11-23T21:16:28.162Z,97871.13
2023-11-23T21:18:56.337Z,97857.88
2023-11-23T21:21:25.777Z,97865.59
2023-11-23T21:23:53.701Z,97873.81
2023-11-23T21:26:21.659Z,97868.72
2023-11-23T21:28:49.993Z,97878.91
2023-11-23T21:31:19.111Z,97872.41
2023-11-23T21:33:47.092Z,97865.09
2023-11-23T21:36:15.760Z,97883.19
2023-11-23T21:38:45.199Z,97896.06
2023-11-23T21:41:16.120Z,97876.78
2023-11-23T21:43:44.391Z,97877.84
2023-11-23T21:46:12.894Z,97870.13
2023-11-23T21:48:41.456Z,97870.69
2023-11-23T21:51:09.502Z,97875.78
2023-11-23T21:53:37.477Z,97878.44
2023-11-23T21:56:07.501Z,97886.72
2023-11-23T21:58:35.794Z,97886.13
2023-11-23T22:01:03.860Z,97895.03
2023-11-23T22:03:31.994Z,97894.19
2023-11-23T22:06:00.098Z,97892.56
2023-11-23T22:08:28.061Z,97900.22
2023-11-23T22:10:56.770Z,97908.44
2023-11-23T22:13:26.426Z,97917.84
2023-11-23T22:15:54.522Z,97924.91
2023-11-23T22:18:23.606Z,97916.22
2023-11-23T22:20:51.978Z,97917.19
2023-11-23T22:23:20.471Z,97923.72
2023-11-23T22:25:49.017Z,97924.59
2023-11-23T22:28:17.607Z,97917.72
2023-11-23T22:30:47.629Z,97920.25
2023-11-23T22:33:15.963Z,97927.22
2023-11-23T22:35:44.895Z,97928.84
2023-11-23T22:38:15.848Z,97935.53
2023-11-23T22:40:45.098Z,97934.78
2023-11-23T22:43:17.714Z,97942.25
2023-11-23T22:45:48.483Z,97944.09
2023-11-23T22:48:16.415Z,97955.56
2023-11-23T22:50:45.517Z,97949.72
2023-11-23T22:53:13.897Z,97935.09
2023-11-23T22:55:41.862Z,97959.41
2023-11-23T22:58:09.807Z,97947.50
2023-11-23T23:00:38.275Z,97948.75
2023-11-23T23:03:07.778Z,97963.22
2023-11-23T23:05:36.290Z,97952.19
2023-11-23T23:08:05.128Z,97979.41
2023-11-23T23:10:34.467Z,97985.38
2023-11-23T23:13:04.307Z,97984.41
2023-11-23T23:15:32.576Z,98000.84
2023-11-23T23:18:00.810Z,97984.84
2023-11-23T23:20:30.592Z,97999.34
2023-11-23T23:22:58.857Z,98007.56
2023-11-23T23:25:26.776Z,98001.31
2023-11-23T23:27:54.873Z,97998.03
2023-11-23T23:30:22.920Z,98007.66
2023-11-23T23:32:54.353Z,98015.88
2023-11-23T23:35:22.385Z,98006.09
2023-11-23T23:37:51.806Z,98010.44
2023-11-23T23:40:19.832Z,98012.19
2023-11-23T23:42:47.840Z,98001.81
2023-11-23T23:45:15.996Z,98007.91
2023-11-23T23:47:46.087Z,97986.53
2023-11-23T23:50:14.228Z,97991.72
2023-11-23T23:52:42.384Z,97998.69
2023-11-23T23:55:11.756Z,98000.00
2023-11-23T23:57:39.820Z,98007.53
